^^
Saratoga-Weather Station Historical Data
Daily Summary for January 18, 2021 Units:  Both    English   Metric
Daily Weekly Monthly Yearly Custom
  High: Low: Average:
Temperature: 42.3 °F /  5.7 °C 33.1 °F /  0.6 °C 35.6 °F /  2 °C
Dew Point: 40.5 °F /  4.7 °C 32 °F /  0 °C 34.5 °F /  1.4 °C
Humidity: 97% 93% 96%
Wind Speed: 2mph /  3.2km/h - 0.1mph /  0.2km/h
Wind Gust: 4mph /  6.4km/h - -
Wind- - ENE
Pressure: 30.1 in /  1018.0 hPa 29.9 in /  1012.5 hPa -
Precipitation: 0.01 in /  0.2 mm    
Historical Graphs
 
 
Tabular Data for January 18, 2021
Time Temperature Dew Point Pressure Wind Wind Speed Wind Gust Humidity Rainfall Rate (Hourly) solar
00:04 37.6 °F /  3.1 °C 36 °F /  2.2 °C 30.1in /  1018.0hPa Calm     94% 0in /  0.0mm 0 W/m2
00:09 37.4 °F /  3 °C 35.8 °F /  2.1 °C 30.1in /  1018.0hPa Calm     94% 0in /  0.0mm 0 W/m2
00:14 37.2 °F /  2.9 °C 35.6 °F /  2 °C 30.1in /  1018.0hPa Calm     94% 0in /  0.0mm 0 W/m2
00:19 37.2 °F /  2.9 °C 35.6 °F /  2 °C 30.1in /  1018.0hPa Calm   1mph /  1.6km/h 94% 0in /  0.0mm 0 W/m2
00:24 37.2 °F /  2.9 °C 36 °F /  2.2 °C 30.1in /  1018.0hPa Calm     95% 0in /  0.0mm 0 W/m2
00:29 37.2 °F /  2.9 °C 36 °F /  2.2 °C 30.1in /  1018.0hPa Calm     95% 0in /  0.0mm 0 W/m2
00:34 37 °F /  2.8 °C 35.8 °F /  2.1 °C 30.1in /  1018.0hPa Calm     95% 0in /  0.0mm 0 W/m2
00:39 36.9 °F /  2.7 °C 35.2 °F /  1.8 °C 30.1in /  1018.0hPa Calm     94% 0in /  0.0mm 0 W/m2
00:44 36.9 °F /  2.7 °C 35.2 °F /  1.8 °C 30.1in /  1017.6hPa Calm     94% 0in /  0.0mm 0 W/m2
00:49 36.7 °F /  2.6 °C 35.4 °F /  1.9 °C 30.1in /  1017.6hPa Calm     95% 0in /  0.0mm 0 W/m2
00:54 36.7 °F /  2.6 °C 35.4 °F /  1.9 °C 30.1in /  1017.6hPa Calm     95% 0in /  0.0mm 0 W/m2
00:59 36.9 °F /  2.7 °C 35.6 °F /  2 °C 30.1in /  1017.6hPa Calm     95% 0in /  0.0mm 0 W/m2
01:04 36.9 °F /  2.7 °C 35.6 °F /  2 °C 30.1in /  1017.6hPa Calm     95% 0in /  0.0mm 0 W/m2
01:09 36.7 °F /  2.6 °C 35.4 °F /  1.9 °C 30.1in /  1017.6hPa Calm     95% 0in /  0.0mm 0 W/m2
01:14 36.7 °F /  2.6 °C 35.4 °F /  1.9 °C 30.1in /  1017.6hPa Calm     95% 0in /  0.0mm 0 W/m2
01:19 36.5 °F /  2.5 °C 35.2 °F /  1.8 °C 30in /  1017.3hPa Calm     95% 0in /  0.0mm 0 W/m2
01:24 36.3 °F /  2.4 °C 35.1 °F /  1.7 °C 30in /  1017.3hPa Calm     95% 0in /  0.0mm 0 W/m2
01:29 36.3 °F /  2.4 °C 35.1 °F /  1.7 °C 30in /  1017.3hPa Calm     95% 0in /  0.0mm 0 W/m2
01:34 36.3 °F /  2.4 °C 35.1 °F /  1.7 °C 30in /  1017.3hPa Calm     95% 0in /  0.0mm 0 W/m2
01:40 36.1 °F /  2.3 °C 34.9 °F /  1.6 °C 30in /  1017.3hPa Calm     95% 0in /  0.0mm 0 W/m2
01:45 36 °F /  2.2 °C 34.7 °F /  1.5 °C 30in /  1016.9hPa Calm     95% 0in /  0.0mm 0 W/m2
01:50 36 °F /  2.2 °C 34.7 °F /  1.5 °C 30in /  1016.9hPa Calm     95% 0in /  0.0mm 0 W/m2
01:55 36 °F /  2.2 °C 34.7 °F /  1.5 °C 30in /  1016.9hPa Calm     95% 0in /  0.0mm 0 W/m2
02:00 35.8 °F /  2.1 °C 34.5 °F /  1.4 °C 30in /  1016.9hPa Calm     95% 0in /  0.0mm 0 W/m2
02:05 35.8 °F /  2.1 °C 34.5 °F /  1.4 °C 30in /  1016.9hPa Calm     95% 0in /  0.0mm 0 W/m2
02:10 35.6 °F /  2 °C 34.3 °F /  1.3 °C 30in /  1016.9hPa Calm     95% 0in /  0.0mm 0 W/m2
02:15 35.8 °F /  2.1 °C 34.5 °F /  1.4 °C 30in /  1016.9hPa Calm     95% 0in /  0.0mm 0 W/m2
02:20 35.8 °F /  2.1 °C 34.5 °F /  1.4 °C 30in /  1016.9hPa Calm     95% 0in /  0.0mm 0 W/m2
02:25 35.6 °F /  2 °C 34.3 °F /  1.3 °C 30in /  1016.9hPa Calm     95% 0in /  0.0mm 0 W/m2
02:30 35.8 °F /  2.1 °C 34.5 °F /  1.4 °C 30in /  1016.9hPa Calm     95% 0in /  0.0mm 0 W/m2
02:35 35.8 °F /  2.1 °C 34.7 °F /  1.5 °C 30in /  1016.9hPa Calm     96% 0in /  0.0mm 0 W/m2
02:40 35.6 °F /  2 °C 34.3 °F /  1.3 °C 30in /  1016.9hPa Calm     95% 0in /  0.0mm 0 W/m2
02:45 35.4 °F /  1.9 °C 34.2 °F /  1.2 °C 30in /  1016.9hPa Calm     95% 0in /  0.0mm 0 W/m2
02:50 35.4 °F /  1.9 °C 34.3 °F /  1.3 °C 30in /  1016.9hPa Calm     96% 0in /  0.0mm 0 W/m2
02:55 35.2 °F /  1.8 °C 34.2 °F /  1.2 °C 30in /  1016.6hPa Calm     96% 0in /  0.0mm 0 W/m2
03:00 35.2 °F /  1.8 °C 34 °F /  1.1 °C 30in /  1016.6hPa Calm     95% 0in /  0.0mm 0 W/m2
03:05 35.1 °F /  1.7 °C 33.8 °F /  1 °C 30in /  1016.6hPa Calm     95% 0in /  0.0mm 0 W/m2
03:10 35.1 °F /  1.7 °C 33.8 °F /  1 °C 30in /  1016.6hPa Calm     95% 0in /  0.0mm 0 W/m2
03:15 34.9 °F /  1.6 °C 33.6 °F /  0.9 °C 30in /  1016.6hPa Calm     95% 0in /  0.0mm 0 W/m2
03:20 34.7 °F /  1.5 °C 33.4 °F /  0.8 °C 30in /  1016.3hPa Calm     95% 0in /  0.0mm 0 W/m2
03:25 34.5 °F /  1.4 °C 33.3 °F /  0.7 °C 30in /  1016.3hPa Calm     95% 0in /  0.0mm 0 W/m2
03:30 34.3 °F /  1.3 °C 33.1 °F /  0.6 °C 30in /  1016.3hPa Calm     95% 0in /  0.0mm 0 W/m2
03:35 34.3 °F /  1.3 °C 33.1 °F /  0.6 °C 30in /  1016.3hPa Calm     95% 0in /  0.0mm 0 W/m2
03:40 34.3 °F /  1.3 °C 33.3 °F /  0.7 °C 30in /  1016.3hPa Calm     96% 0in /  0.0mm 0 W/m2
03:45 34.3 °F /  1.3 °C 33.3 °F /  0.7 °C 30in /  1016.3hPa Calm     96% 0in /  0.0mm 0 W/m2
03:50 34.3 °F /  1.3 °C 33.3 °F /  0.7 °C 30in /  1016.3hPa Calm     96% 0in /  0.0mm 0 W/m2
03:55 34.2 °F /  1.2 °C 33.1 °F /  0.6 °C 30in /  1016.3hPa Calm     96% 0in /  0.0mm 0 W/m2
04:00 34.2 °F /  1.2 °C 33.1 °F /  0.6 °C 30in /  1016.3hPa Calm     96% 0in /  0.0mm 0 W/m2
04:05 34.2 °F /  1.2 °C 33.1 °F /  0.6 °C 30in /  1016.3hPa Calm     96% 0in /  0.0mm 0 W/m2
04:10 34.2 °F /  1.2 °C 33.1 °F /  0.6 °C 30in /  1015.9hPa Calm     96% 0in /  0.0mm 0 W/m2
04:15 34.3 °F /  1.3 °C 33.3 °F /  0.7 °C 30in /  1015.9hPa Calm     96% 0in /  0.0mm 0 W/m2
04:20 34.3 °F /  1.3 °C 33.3 °F /  0.7 °C 30in /  1015.9hPa Calm     96% 0in /  0.0mm 0 W/m2
04:25 34.3 °F /  1.3 °C 33.3 °F /  0.7 °C 30in /  1015.6hPa Calm     96% 0in /  0.0mm 0 W/m2
04:30 34.3 °F /  1.3 °C 33.3 °F /  0.7 °C 30in /  1015.6hPa Calm     96% 0in /  0.0mm 0 W/m2
04:35 34.3 °F /  1.3 °C 33.3 °F /  0.7 °C 30in /  1015.6hPa Calm     96% 0in /  0.0mm 0 W/m2
04:40 34.3 °F /  1.3 °C 33.3 °F /  0.7 °C 30in /  1015.6hPa Calm     96% 0in /  0.0mm 0 W/m2
04:45 34.5 °F /  1.4 °C 33.4 °F /  0.8 °C 30in /  1015.6hPa Calm     96% 0in /  0.0mm 0 W/m2
04:50 34.7 °F /  1.5 °C 33.6 °F /  0.9 °C 30in /  1015.2hPa Calm     96% 0in /  0.0mm 0 W/m2
04:55 34.9 °F /  1.6 °C 33.8 °F /  1 °C 30in /  1015.2hPa NE 0.9mph /  1.4km/h 2mph /  3.2km/h 96% 0in /  0.0mm 0 W/m2
05:00 34.9 °F /  1.6 °C 33.8 °F /  1 °C 30in /  1015.2hPa Calm     96% 0in /  0.0mm 0 W/m2
05:05 34.9 °F /  1.6 °C 33.8 °F /  1 °C 30in /  1015.2hPa Calm   2mph /  3.2km/h 96% 0in /  0.0mm 0 W/m2
05:11 34.5 °F /  1.4 °C 33.4 °F /  0.8 °C 30in /  1014.9hPa Calm     96% 0in /  0.0mm 0 W/m2
05:16 34.5 °F /  1.4 °C 33.4 °F /  0.8 °C 30in /  1014.9hPa Calm     96% 0in /  0.0mm 0 W/m2
05:21 34.3 °F /  1.3 °C 33.3 °F /  0.7 °C 30in /  1014.9hPa Calm     96% 0in /  0.0mm 0 W/m2
05:26 34.3 °F /  1.3 °C 33.3 °F /  0.7 °C 30in /  1014.9hPa Calm     96% 0in /  0.0mm 0 W/m2
05:31 34.3 °F /  1.3 °C 33.3 °F /  0.7 °C 30in /  1014.9hPa Calm     96% 0in /  0.0mm 0 W/m2
05:36 34.2 °F /  1.2 °C 33.1 °F /  0.6 °C 30in /  1014.9hPa Calm     96% 0in /  0.0mm 0 W/m2
05:41 34.2 °F /  1.2 °C 33.1 °F /  0.6 °C 30in /  1014.9hPa Calm     96% 0in /  0.0mm 0 W/m2
05:46 34.2 °F /  1.2 °C 33.1 °F /  0.6 °C 30in /  1014.9hPa Calm     96% 0in /  0.0mm 0 W/m2
05:51 34 °F /  1.1 °C 32.9 °F /  0.5 °C 30in /  1014.9hPa Calm     96% 0in /  0.0mm 0 W/m2
05:56 34 °F /  1.1 °C 32.9 °F /  0.5 °C 30in /  1014.9hPa Calm     96% 0in /  0.0mm 0 W/m2
06:01 34 °F /  1.1 °C 32.9 °F /  0.5 °C 30in /  1014.9hPa Calm     96% 0in /  0.0mm 0 W/m2
06:06 34 °F /  1.1 °C 32.9 °F /  0.5 °C 30in /  1014.9hPa Calm     96% 0in /  0.0mm 0 W/m2
06:11 34 °F /  1.1 °C 32.9 °F /  0.5 °C 30in /  1014.9hPa Calm     96% 0in /  0.0mm 0 W/m2
06:16 34 °F /  1.1 °C 32.9 °F /  0.5 °C 30in /  1014.9hPa Calm     96% 0in /  0.0mm 0 W/m2
06:21 34.2 °F /  1.2 °C 33.1 °F /  0.6 °C 30in /  1014.9hPa Calm     96% 0in /  0.0mm 0 W/m2
06:26 34.2 °F /  1.2 °C 33.1 °F /  0.6 °C 30in /  1014.9hPa Calm     96% 0in /  0.0mm 0 W/m2
06:31 34.3 °F /  1.3 °C 33.3 °F /  0.7 °C 30in /  1014.6hPa Calm     96% 0in /  0.0mm 0 W/m2
06:36 34.3 °F /  1.3 °C 33.3 °F /  0.7 °C 30in /  1014.6hPa Calm     96% 0in /  0.0mm 0 W/m2
06:41 34.3 °F /  1.3 °C 33.3 °F /  0.7 °C 30in /  1014.6hPa Calm     96% 0in /  0.0mm 0 W/m2
06:46 34.2 °F /  1.2 °C 33.1 °F /  0.6 °C 30in /  1014.6hPa Calm     96% 0in /  0.0mm 0 W/m2
06:51 34.3 °F /  1.3 °C 33.3 °F /  0.7 °C 30in /  1014.6hPa Calm     96% 0in /  0.0mm 0 W/m2
06:56 34.3 °F /  1.3 °C 33.3 °F /  0.7 °C 30in /  1014.6hPa Calm     96% 0in /  0.0mm 0 W/m2
07:01 34.2 °F /  1.2 °C 33.1 °F /  0.6 °C 30in /  1014.6hPa Calm     96% 0in /  0.0mm 0 W/m2
07:06 34.2 °F /  1.2 °C 33.1 °F /  0.6 °C 30in /  1014.6hPa Calm     96% 0in /  0.0mm 0 W/m2
07:11 34 °F /  1.1 °C 32.9 °F /  0.5 °C 30in /  1014.6hPa Calm     96% 0in /  0.0mm 0 W/m2
07:16 33.6 °F /  0.9 °C 32.5 °F /  0.3 °C 30in /  1014.2hPa Calm     96% 0in /  0.0mm 0 W/m2
07:21 33.4 °F /  0.8 °C 32.4 °F /  0.2 °C 30in /  1014.2hPa Calm     96% 0in /  0.0mm 0 W/m2
07:26 33.4 °F /  0.8 °C 32.4 °F /  0.2 °C 30in /  1014.2hPa Calm     96% 0in /  0.0mm 0 W/m2
07:31 33.3 °F /  0.7 °C 32.2 °F /  0.1 °C 30in /  1014.2hPa Calm     96% 0in /  0.0mm 0 W/m2
07:36 33.1 °F /  0.6 °C 32 °F /  0 °C 30in /  1014.2hPa Calm     96% 0in /  0.0mm 0 W/m2
07:41 33.3 °F /  0.7 °C 32.2 °F /  0.1 °C 30in /  1014.2hPa Calm     96% 0in /  0.0mm 0 W/m2
07:46 33.3 °F /  0.7 °C 32.2 °F /  0.1 °C 29.9in /  1013.9hPa Calm     96% 0in /  0.0mm 7 W/m2
07:51 33.3 °F /  0.7 °C 32.2 °F /  0.1 °C 30in /  1014.2hPa Calm     96% 0in /  0.0mm 12 W/m2
07:56 33.4 °F /  0.8 °C 32.4 °F /  0.2 °C 29.9in /  1013.9hPa Calm     96% 0in /  0.0mm 18 W/m2
08:01 33.4 °F /  0.8 °C 32.4 °F /  0.2 °C 29.9in /  1013.9hPa Calm     96% 0in /  0.0mm 21 W/m2
08:06 33.4 °F /  0.8 °C 32.4 °F /  0.2 °C 30in /  1014.2hPa Calm     96% 0in /  0.0mm 23 W/m2
08:11 33.4 °F /  0.8 °C 32.4 °F /  0.2 °C 30in /  1014.2hPa Calm     96% 0in /  0.0mm 28 W/m2
08:16 33.4 °F /  0.8 °C 32.4 °F /  0.2 °C 30in /  1014.2hPa Calm     96% 0in /  0.0mm 32 W/m2
08:21 33.6 °F /  0.9 °C 32.9 °F /  0.5 °C 30in /  1014.2hPa Calm     97% 0.01in /  0.2mm 35 W/m2
08:26 33.6 °F /  0.9 °C 32.9 °F /  0.5 °C 30in /  1014.2hPa Calm     97% 0.01in /  0.2mm 40 W/m2
08:31 34 °F /  1.1 °C 33.3 °F /  0.7 °C 29.9in /  1013.9hPa Calm     97% 0.01in /  0.2mm 42 W/m2
08:36 34.2 °F /  1.2 °C 33.4 °F /  0.8 °C 29.9in /  1013.9hPa Calm     97% 0.01in /  0.2mm 47 W/m2
08:42 34.5 °F /  1.4 °C 33.8 °F /  1 °C 29.9in /  1013.9hPa Calm     97% 0.01in /  0.2mm 53 W/m2
08:47 34.7 °F /  1.5 °C 34 °F /  1.1 °C 29.9in /  1013.9hPa Calm     97% 0.01in /  0.2mm 53 W/m2
08:52 34.9 °F /  1.6 °C 34.2 °F /  1.2 °C 29.9in /  1013.9hPa Calm     97% 0.01in /  0.2mm 54 W/m2
08:57 35.2 °F /  1.8 °C 34.5 °F /  1.4 °C 29.9in /  1013.9hPa Calm     97% 0.01in /  0.2mm 60 W/m2
09:02 35.4 °F /  1.9 °C 34.7 °F /  1.5 °C 29.9in /  1013.9hPa Calm     97% 0.01in /  0.2mm 62 W/m2
09:07 35.8 °F /  2.1 °C 35.1 °F /  1.7 °C 29.9in /  1013.9hPa Calm     97% 0.01in /  0.2mm 63 W/m2
09:12 36 °F /  2.2 °C 35.2 °F /  1.8 °C 29.9in /  1013.5hPa ENE 2mph /  3.2km/h 2mph /  3.2km/h 97% 0.01in /  0.2mm 67 W/m2
09:17 36.1 °F /  2.3 °C 35.4 °F /  1.9 °C 29.9in /  1013.5hPa Calm     97% 0in /  0.0mm 83 W/m2
09:22 36.3 °F /  2.4 °C 35.6 °F /  2 °C 29.9in /  1013.5hPa Calm     97% 0in /  0.0mm 84 W/m2
09:27 36.3 °F /  2.4 °C 35.6 °F /  2 °C 29.9in /  1013.5hPa Calm     97% 0in /  0.0mm 118 W/m2
09:32 36.7 °F /  2.6 °C 36 °F /  2.2 °C 29.9in /  1013.5hPa Calm   1mph /  1.6km/h 97% 0in /  0.0mm 76 W/m2
09:37 36.9 °F /  2.7 °C 36.1 °F /  2.3 °C 29.9in /  1013.5hPa ENE 0.9mph /  1.4km/h 2mph /  3.2km/h 97% 0in /  0.0mm 125 W/m2
09:42 36.9 °F /  2.7 °C 36.1 °F /  2.3 °C 29.9in /  1013.5hPa Calm     97% 0in /  0.0mm 134 W/m2
09:47 37 °F /  2.8 °C 36.3 °F /  2.4 °C 29.9in /  1013.2hPa Calm     97% 0in /  0.0mm 141 W/m2
09:52 37.4 °F /  3 °C 36.7 °F /  2.6 °C 29.9in /  1013.2hPa ENE 0.9mph /  1.4km/h 2mph /  3.2km/h 97% 0in /  0.0mm 162 W/m2
09:57 37.8 °F /  3.2 °C 37 °F /  2.8 °C 29.9in /  1013.2hPa East 2mph /  3.2km/h 4mph /  6.4km/h 97% 0in /  0.0mm 197 W/m2
10:02 37.9 °F /  3.3 °C 37.2 °F /  2.9 °C 29.9in /  1013.2hPa ENE 0.9mph /  1.4km/h 2mph /  3.2km/h 97% 0in /  0.0mm 220 W/m2
10:07 38.1 °F /  3.4 °C 37.4 °F /  3 °C 29.9in /  1013.2hPa ENE 2mph /  3.2km/h 3mph /  4.8km/h 97% 0in /  0.0mm 123 W/m2
10:12 38.1 °F /  3.4 °C 37.4 °F /  3 °C 29.9in /  1013.2hPa ENE 0.9mph /  1.4km/h 2mph /  3.2km/h 97% 0in /  0.0mm 165 W/m2
10:17 38.3 °F /  3.5 °C 37.6 °F /  3.1 °C 29.9in /  1013.2hPa NE 0.9mph /  1.4km/h 3mph /  4.8km/h 97% 0in /  0.0mm 141 W/m2
10:22 38.1 °F /  3.4 °C 37.4 °F /  3 °C 29.9in /  1013.2hPa ENE 0.9mph /  1.4km/h 3mph /  4.8km/h 97% 0in /  0.0mm 137 W/m2
10:27 38.5 °F /  3.6 °C 37.8 °F /  3.2 °C 29.9in /  1012.9hPa Calm   2mph /  3.2km/h 97% 0in /  0.0mm 218 W/m2
10:32 38.7 °F /  3.7 °C 37.9 °F /  3.3 °C 29.9in /  1013.2hPa Calm   2mph /  3.2km/h 97% 0in /  0.0mm 158 W/m2
10:37 38.8 °F /  3.8 °C 38.1 °F /  3.4 °C 29.9in /  1012.9hPa East 2mph /  3.2km/h 3mph /  4.8km/h 97% 0in /  0.0mm 211 W/m2
10:42 39.2 °F /  4 °C 38.5 °F /  3.6 °C 29.9in /  1012.9hPa ENE 0.9mph /  1.4km/h 3mph /  4.8km/h 97% 0in /  0.0mm 243 W/m2
10:47 39.7 °F /  4.3 °C 39 °F /  3.9 °C 29.9in /  1012.9hPa Calm   3mph /  4.8km/h 97% 0in /  0.0mm 186 W/m2
10:52 40.1 °F /  4.5 °C 39.4 °F /  4.1 °C 29.9in /  1012.9hPa Calm   2mph /  3.2km/h 97% 0in /  0.0mm 176 W/m2
10:57 40.5 °F /  4.7 °C 39.4 °F /  4.1 °C 29.9in /  1012.9hPa ENE 2mph /  3.2km/h 3mph /  4.8km/h 96% 0in /  0.0mm 183 W/m2
11:02 40.8 °F /  4.9 °C 39.7 °F /  4.3 °C 29.9in /  1012.5hPa SE 2mph /  3.2km/h 2mph /  3.2km/h 96% 0in /  0.0mm 181 W/m2
11:07 41.4 °F /  5.2 °C 40.1 °F /  4.5 °C 29.9in /  1012.5hPa Calm     95% 0in /  0.0mm 176 W/m2
11:12 41.7 °F /  5.4 °C 40.1 °F /  4.5 °C 29.9in /  1012.5hPa East 0.9mph /  1.4km/h 3mph /  4.8km/h 94% 0in /  0.0mm 186 W/m2
11:17 42.3 °F /  5.7 °C 40.5 °F /  4.7 °C 29.9in /  1012.5hPa ENE 0.9mph /  1.4km/h 1mph /  1.6km/h 93% 0in /  0.0mm 178 W/m2
Juneau County Weather
Compliments of Weather Underground - 4 mb